Fairmount City, Pennsylvania
Current Conditions -  °F | °C
As of 8:53 AM on Thursday 18 Dec 2014 (Local Time) from KDUJ Reporting Station
Haze Haze  
Wind Chill: 15°   Ceiling: 700
Heat Index: 25°   Visibility: 4mi
Dew Point: 23°   Wind: 10mph
Humidity: 92%   Direction: 270°W
Pressure: 30.07"   Gusts: NA
Location:  41.01°N, 79.32°W
Report Text: KDUJ 181353Z AUTO 27009KT 4SM BR OVC007 M04/M05 A3007 RMK AO2 CIG 006V011 SLP205 T10391050
Loading
Personal Weather Stations






























Interactive Weather Map New forecast layout! Learn more

10-Day Weather Forecast

Advertisements
Track Severe Weather on mobile